Time;durP1;ratioP1;P1;durP2;ratioP2;P2;SDS_P1;SDS_P2;PMS_P1;PMS_P2;Temp;Humidity;BMP_temperature;BMP_pressure;BME280_temperature;BME280_humidity;BME280_pressure;Samples;Min_cycle;Max_cycle;Signal;HPM_P1;HPM_P2
2024/02/29 00:02:54;;;;;;;16.95;7.55;;;;;;;4.26;65.29;100772.56;10303743;28;20064;-60
2024/02/29 00:07:55;;;;;;;16.23;6.32;;;;;;;4.29;65.55;100772.34;10301852;28;20595;-60
2024/02/29 00:12:57;;;;;;;14.13;6.50;;;;;;;4.25;65.48;100759.44;10300425;28;20069;-60
2024/02/29 00:17:59;;;;;;;14.00;6.30;;;;;;;4.24;65.73;100760.38;10302694;28;20092;-60
2024/02/29 00:23:00;;;;;;;17.25;6.07;;;;;;;4.25;65.83;100759.44;10293244;28;20046;-59
2024/02/29 00:28:02;;;;;;;15.63;5.57;;;;;;;4.28;65.63;100764.47;10305607;28;20069;-61
2024/02/29 00:33:04;;;;;;;18.20;6.57;;;;;;;4.27;65.62;100766.31;10304794;28;20058;-60
2024/02/29 00:38:05;;;;;;;16.67;7.20;;;;;;;4.24;65.68;100757.72;10306331;28;20107;-60
2024/02/29 00:43:08;;;;;;;15.57;6.72;;;;;;;4.21;65.89;100757.97;10302400;28;20055;-60
2024/02/29 00:48:10;;;;;;;17.27;7.25;;;;;;;4.26;65.91;100753.13;10303843;28;20422;-59
2024/02/29 00:53:11;;;;;;;15.60;6.60;;;;;;;4.28;65.80;100744.03;10299871;28;20046;-58
2024/02/29 00:58:13;;;;;;;21.40;6.95;;;;;;;4.30;65.36;100746.56;10298773;28;20057;-59
2024/02/29 01:03:14;;;;;;;17.27;7.05;;;;;;;4.22;65.73;100741.03;10305196;28;20043;-59
2024/02/29 01:08:16;;;;;;;12.10;5.22;;;;;;;4.21;65.95;100736.69;10300417;28;20378;-59
2024/02/29 01:13:17;;;;;;;15.80;7.40;;;;;;;4.16;66.42;100721.94;10303057;28;20090;-59
2024/02/29 01:18:19;;;;;;;15.80;7.32;;;;;;;4.21;66.07;100726.91;10301517;28;20058;-59
2024/02/29 01:23:20;;;;;;;15.55;6.88;;;;;;;4.27;65.64;100718.41;10298952;28;20113;-59
2024/02/29 01:28:22;;;;;;;16.20;6.88;;;;;;;4.28;66.12;100712.09;10305028;28;20506;-59
2024/02/29 01:33:23;;;;;;;14.43;7.28;;;;;;;4.22;65.83;100704.63;10300942;28;20055;-59
2024/02/29 01:38:24;;;;;;;15.10;5.80;;;;;;;4.16;66.02;100705.97;10307442;28;20051;-59
2024/02/29 01:43:29;;;;;;;17.33;7.55;;;;;;;4.02;66.38;100700.94;10300273;28;20486;-59
2024/02/29 01:48:31;;;;;;;14.10;6.35;;;;;;;3.87;66.85;100692.41;10303046;28;20141;-57
2024/02/29 01:53:32;;;;;;;17.15;6.32;;;;;;;3.77;66.89;100688.78;10299710;28;20556;-58
2024/02/29 01:58:35;;;;;;;13.95;6.18;;;;;;;3.73;66.78;100677.56;10297965;28;20046;-58
2024/02/29 02:03:38;;;;;;;14.88;6.47;;;;;;;3.64;66.97;100665.00;10299453;28;20132;-57
2024/02/29 02:08:40;;;;;;;39.40;14.88;;;;;;;3.61;66.99;100667.06;10297587;28;20065;-57
2024/02/29 02:13:42;;;;;;;45.88;17.23;;;;;;;3.49;67.28;100666.22;10297961;28;20050;-57
2024/02/29 02:18:43;;;;;;;18.55;8.60;;;;;;;3.42;67.17;100667.69;10297125;28;20038;-58
2024/02/29 02:23:44;;;;;;;18.20;8.15;;;;;;;3.44;67.21;100658.63;10300907;28;20077;-58
2024/02/29 02:28:46;;;;;;;15.90;7.60;;;;;;;3.42;67.04;100643.78;10298926;28;20049;-57
2024/02/29 02:33:47;;;;;;;15.05;8.00;;;;;;;3.37;66.78;100631.69;10300812;28;20046;-58
2024/02/29 02:38:49;;;;;;;15.65;6.80;;;;;;;3.29;66.86;100636.78;10295365;28;20043;-58
2024/02/29 02:43:50;;;;;;;14.70;6.50;;;;;;;3.07;67.40;100640.28;10294754;28;20050;-58
2024/02/29 02:48:52;;;;;;;14.80;6.50;;;;;;;3.10;67.31;100629.44;10302801;28;20506;-58
2024/02/29 02:53:53;;;;;;;16.02;6.95;;;;;;;3.07;67.25;100626.16;10305943;28;20104;-57
2024/02/29 02:58:54;;;;;;;19.08;6.85;;;;;;;3.07;67.10;100621.69;10303480;28;20058;-58
2024/02/29 03:03:56;;;;;;;19.27;7.20;;;;;;;2.89;67.99;100616.03;10300845;28;20054;-58
2024/02/29 03:08:57;;;;;;;16.83;6.38;;;;;;;2.95;67.49;100612.88;10304169;28;20065;-58
2024/02/29 03:13:59;;;;;;;16.52;6.20;;;;;;;2.94;67.20;100613.00;10302122;28;20046;-57
2024/02/29 03:19:01;;;;;;;17.25;7.75;;;;;;;2.91;67.65;100600.81;10300793;28;20054;-59
2024/02/29 03:24:02;;;;;;;16.08;7.30;;;;;;;2.88;67.33;100597.53;10302636;28;20089;-58
2024/02/29 03:29:04;;;;;;;12.13;5.97;;;;;;;2.80;67.56;100592.84;10302134;28;20050;-57
2024/02/29 03:34:05;;;;;;;16.42;6.63;;;;;;;2.77;67.50;100585.97;10301147;28;20712;-57
2024/02/29 03:39:07;;;;;;;17.50;6.45;;;;;;;2.72;67.20;100576.66;10302464;28;20069;-58
2024/02/29 03:44:08;;;;;;;14.57;6.00;;;;;;;2.60;67.91;100570.50;10304196;28;20053;-57
2024/02/29 03:49:10;;;;;;;16.42;6.57;;;;;;;2.57;67.90;100568.94;10293010;28;20046;-57
2024/02/29 03:54:11;;;;;;;17.77;6.88;;;;;;;2.53;67.90;100564.84;10303194;28;20132;-57
2024/02/29 03:59:13;;;;;;;12.52;5.72;;;;;;;2.40;68.31;100561.44;10297509;28;20065;-57
2024/02/29 04:04:18;;;;;;;18.63;7.78;;;;;;;2.36;67.89;100560.81;10303443;28;20098;-58
2024/02/29 04:09:20;;;;;;;16.48;6.85;;;;;;;2.32;67.84;100569.16;10304025;28;20135;-59
2024/02/29 04:14:21;;;;;;;16.70;7.90;;;;;;;2.21;68.83;100571.75;10301601;28;20061;-59
2024/02/29 04:19:23;;;;;;;18.88;7.40;;;;;;;2.30;68.13;100565.75;10303948;28;20510;-59
2024/02/29 04:24:24;;;;;;;15.70;7.22;;;;;;;2.35;68.36;100561.81;10306408;28;20047;-59
2024/02/29 04:29:26;;;;;;;17.17;7.13;;;;;;;2.31;67.70;100556.81;10306996;28;20054;-59
2024/02/29 04:34:27;;;;;;;17.55;6.78;;;;;;;2.22;68.14;100547.78;10307351;28;20502;-59
2024/02/29 04:39:29;;;;;;;17.33;7.80;;;;;;;2.10;68.37;100541.59;10307410;28;20108;-58
2024/02/29 04:44:30;;;;;;;16.25;7.88;;;;;;;2.01;68.79;100544.09;10304347;28;20046;-59
2024/02/29 04:49:32;;;;;;;23.90;7.28;;;;;;;1.96;68.87;100547.13;10305141;28;20038;-60
2024/02/29 04:54:33;;;;;;;17.83;8.25;;;;;;;1.96;68.92;100545.31;10302976;28;20058;-59
2024/02/29 04:59:34;;;;;;;19.00;7.82;;;;;;;2.04;68.89;100539.44;10305559;28;20081;-60
2024/02/29 05:04:36;;;;;;;15.65;7.28;;;;;;;2.10;68.79;100532.81;10308147;28;20134;-59
2024/02/29 05:09:38;;;;;;;16.77;7.78;;;;;;;2.12;68.55;100530.88;10304630;28;20061;-59
2024/02/29 05:14:39;;;;;;;16.05;7.68;;;;;;;2.16;68.31;100535.84;10340424;28;20054;-59
2024/02/29 05:19:41;;;;;;;17.27;7.38;;;;;;;2.20;68.21;100538.25;10325872;28;20209;-57
2024/02/29 05:24:42;;;;;;;13.50;7.22;;;;;;;2.18;68.40;100522.47;10338403;28;20054;-58
2024/02/29 05:29:44;;;;;;;20.58;8.55;;;;;;;2.18;68.03;100515.34;10335473;28;20054;-58
2024/02/29 05:34:46;;;;;;;17.85;7.57;;;;;;;2.16;68.87;100511.13;10335074;28;20065;-58
2024/02/29 05:39:47;;;;;;;23.27;8.35;;;;;;;2.13;69.02;100509.56;10336880;28;20057;-58
2024/02/29 05:44:48;;;;;;;16.33;7.63;;;;;;;2.05;68.65;100503.97;10340267;28;20058;-58
2024/02/29 05:49:50;;;;;;;17.98;8.00;;;;;;;2.01;68.91;100505.19;10337988;28;20058;-57
2024/02/29 05:54:51;;;;;;;19.08;7.78;;;;;;;2.05;68.66;100503.16;10338064;28;20042;-58
2024/02/29 05:59:53;;;;;;;19.40;9.02;;;;;;;2.00;69.17;100505.31;10336763;28;20116;-57
2024/02/29 06:04:55;;;;;;;16.13;7.68;;;;;;;1.96;68.77;100502.06;10329682;28;20061;-58
2024/02/29 06:09:56;;;;;;;16.42;7.40;;;;;;;2.06;68.93;100499.53;10336404;28;20106;-62
2024/02/29 06:14:58;;;;;;;16.77;7.55;;;;;;;2.17;68.45;100511.03;10295211;28;20109;-62
2024/02/29 06:19:59;;;;;;;19.48;8.70;;;;;;;2.29;68.06;100505.72;10299624;28;20042;-63
2024/02/29 06:25:03;;;;;;;19.70;7.82;;;;;;;2.35;68.39;100502.56;10300347;28;20050;-62
2024/02/29 06:30:08;;;;;;;19.15;8.85;;;;;;;2.30;68.66;100499.47;10302924;28;20185;-63
2024/02/29 06:35:10;;;;;;;24.75;8.35;;;;;;;2.26;69.08;100504.16;10311256;28;20105;-63
2024/02/29 06:40:12;;;;;;;22.42;8.23;;;;;;;2.42;68.70;100502.97;10302363;28;20056;-64
2024/02/29 06:45:18;;;;;;;25.67;8.55;;;;;;;2.49;68.40;100504.16;10294045;28;20046;-64
2024/02/29 06:50:19;;;;;;;20.45;9.95;;;;;;;2.47;68.87;100495.47;10306027;28;20061;-64
2024/02/29 06:55:21;;;;;;;20.13;9.43;;;;;;;2.48;69.30;100503.31;10301612;28;20134;-65
2024/02/29 07:00:24;;;;;;;25.40;10.18;;;;;;;2.60;68.92;100490.91;10303990;28;20425;-62
2024/02/29 07:05:26;;;;;;;25.48;10.77;;;;;;;2.74;69.00;100492.47;10300429;28;20055;-61
2024/02/29 07:10:28;;;;;;;24.98;11.23;;;;;;;2.85;69.31;100481.84;10306031;28;20055;-62
2024/02/29 07:15:30;;;;;;;30.55;12.23;;;;;;;2.93;68.87;100474.09;10344176;28;20066;-62
2024/02/29 07:20:32;;;;;;;27.98;12.55;;;;;;;3.14;69.06;100466.22;10343308;28;20046;-61
2024/02/29 07:25:33;;;;;;;27.48;11.80;;;;;;;3.28;68.91;100449.13;10342085;28;20168;-62
2024/02/29 07:30:35;;;;;;;24.33;11.35;;;;;;;3.43;69.00;100454.16;10343590;28;20068;-62
2024/02/29 07:35:36;;;;;;;28.98;12.25;;;;;;;3.56;69.00;100439.72;10342291;28;20056;-61
2024/02/29 07:40:38;;;;;;;23.70;10.60;;;;;;;3.71;68.83;100436.72;10346656;28;20054;-61
2024/02/29 07:45:39;;;;;;;25.00;11.77;;;;;;;3.88;69.26;100444.13;10347083;28;20045;-61
2024/02/29 07:50:40;;;;;;;28.98;12.32;;;;;;;4.09;68.62;100438.78;10350061;28;20527;-58
2024/02/29 07:55:42;;;;;;;23.95;11.23;;;;;;;4.25;68.93;100437.47;10347055;28;20057;-60
2024/02/29 08:00:43;;;;;;;30.63;12.27;;;;;;;4.44;69.22;100442.84;10347337;28;20776;-60
2024/02/29 08:05:47;;;;;;;21.30;9.73;;;;;;;4.65;68.98;100428.66;10347025;28;20057;-60
2024/02/29 08:10:48;;;;;;;26.83;11.35;;;;;;;4.84;68.92;100428.69;10335733;28;20376;-65
2024/02/29 08:15:49;;;;;;;20.25;10.50;;;;;;;5.07;68.83;100415.13;10302876;28;20573;-60
2024/02/29 08:20:51;;;;;;;25.40;10.90;;;;;;;5.31;69.26;100415.56;10301209;28;20070;-62
2024/02/29 08:25:52;;;;;;;27.88;10.70;;;;;;;5.47;69.19;100416.81;10302879;28;20473;-61
2024/02/29 08:30:54;;;;;;;21.90;10.93;;;;;;;5.62;68.71;100412.72;10295318;28;20478;-61
2024/02/29 08:35:56;;;;;;;23.92;12.00;;;;;;;5.68;68.68;100416.66;10306977;28;20153;-58
2024/02/29 08:40:57;;;;;;;25.48;11.93;;;;;;;5.88;68.69;100404.13;10318606;28;20070;-59
2024/02/29 08:45:59;;;;;;;27.77;11.85;;;;;;;6.06;68.19;100401.56;10329041;28;20034;-64
2024/02/29 08:51:00;;;;;;;26.27;12.23;;;;;;;6.18;68.02;100392.41;10342113;28;20039;-62
2024/02/29 08:56:03;;;;;;;26.42;12.60;;;;;;;6.32;68.79;100391.09;10299147;28;20414;-64
2024/02/29 09:01:04;;;;;;;29.15;12.38;;;;;;;6.32;68.82;100388.44;10310204;28;20065;-64
2024/02/29 09:06:06;;;;;;;23.83;11.10;;;;;;;6.51;67.79;100388.31;10303034;28;20057;-65
2024/02/29 09:11:08;;;;;;;28.88;12.20;;;;;;;6.74;67.96;100388.75;10302716;28;20051;-65
2024/02/29 09:16:09;;;;;;;33.67;13.60;;;;;;;6.98;68.13;100381.16;10309898;28;20085;-62
2024/02/29 09:21:11;;;;;;;29.80;12.63;;;;;;;7.44;67.36;100365.84;10316563;28;20394;-65
2024/02/29 09:26:16;;;;;;;30.30;12.45;;;;;;;7.88;66.33;100355.13;10304514;28;20054;-65
2024/02/29 09:31:18;;;;;;;28.55;13.70;;;;;;;8.30;66.08;100347.13;10298301;28;20522;-65
2024/02/29 09:36:20;;;;;;;31.23;13.93;;;;;;;8.73;65.30;100336.41;10304407;28;20057;-65
2024/02/29 09:41:22;;;;;;;32.65;13.55;;;;;;;8.98;65.09;100333.75;10297324;28;20524;-64
2024/02/29 09:46:46;;;;;;;31.67;13.77;;;;;;;9.25;64.47;100319.19;10298050;28;20108;-63
2024/02/29 09:51:49;;;;;;;33.22;15.68;;;;;;;9.23;64.48;100319.34;10299412;28;20078;-65
2024/02/29 09:56:50;;;;;;;33.63;15.00;;;;;;;9.21;64.18;100318.69;10303576;28;20074;-65
2024/02/29 10:01:52;;;;;;;29.67;14.57;;;;;;;9.35;64.17;100316.34;10279905;28;20050;-64
2024/02/29 10:06:54;;;;;;;32.38;14.13;;;;;;;9.61;63.60;100298.16;10302517;28;20145;-65
2024/02/29 10:11:56;;;;;;;30.52;15.50;;;;;;;9.81;63.19;100295.94;10296960;28;20038;-65
2024/02/29 10:16:57;;;;;;;32.88;15.85;;;;;;;9.86;63.37;100298.13;10305424;28;20047;-65
2024/02/29 10:21:59;;;;;;;32.63;15.57;;;;;;;10.05;62.88;100286.97;10302522;28;20053;-64
2024/02/29 10:27:02;;;;;;;37.28;16.05;;;;;;;10.22;61.90;100273.47;10305179;28;20053;-63
2024/02/29 10:32:03;;;;;;;36.72;15.45;;;;;;;10.31;61.83;100265.22;10300986;28;20038;-64
2024/02/29 10:37:05;;;;;;;37.08;15.88;;;;;;;10.55;61.25;100255.34;10299254;28;20062;-65
2024/02/29 10:42:08;;;;;;;32.63;15.73;;;;;;;10.73;60.72;100249.66;10295420;28;20415;-66
2024/02/29 10:47:13;;;;;;;33.28;15.73;;;;;;;10.75;60.42;100244.13;10300684;28;20422;-64
2024/02/29 10:52:26;;;;;;;35.33;16.63;;;;;;;10.94;59.89;100235.56;10306207;28;20061;-64
2024/02/29 10:57:33;;;;;;;33.00;15.55;;;;;;;10.86;59.84;100230.22;10308269;28;20397;-64
2024/02/29 11:02:36;;;;;;;36.20;17.77;;;;;;;10.72;60.42;100229.16;10300956;28;20702;-65
2024/02/29 11:07:38;;;;;;;34.70;16.42;;;;;;;10.73;60.04;100214.72;10312597;28;20121;-66
2024/02/29 11:12:44;;;;;;;37.80;16.42;;;;;;;10.74;59.83;100205.63;10345009;28;20058;-63
2024/02/29 11:17:46;;;;;;;41.97;16.17;;;;;;;11.21;58.89;100196.44;10337442;28;20118;-62
2024/02/29 11:22:48;;;;;;;35.50;17.75;;;;;;;11.48;58.58;100180.69;10339631;28;20065;-59
2024/02/29 11:27:50;;;;;;;34.67;16.40;;;;;;;11.58;58.25;100161.56;10333331;28;20055;-60
2024/02/29 11:32:53;;;;;;;32.65;15.32;;;;;;;11.66;57.96;100156.91;10335763;28;20046;-60
2024/02/29 11:37:59;;;;;;;34.17;16.00;;;;;;;11.52;57.98;100145.13;10331270;28;20051;-61
2024/02/29 11:43:01;;;;;;;37.58;17.13;;;;;;;11.64;57.85;100132.03;10327103;28;20050;-62
2024/02/29 11:48:04;;;;;;;32.20;15.75;;;;;;;12.08;56.80;100117.66;10326933;28;20056;-59
2024/02/29 11:53:05;;;;;;;36.70;16.67;;;;;;;12.32;56.12;100109.34;10340470;28;20070;-62
2024/02/29 11:58:08;;;;;;;35.53;16.98;;;;;;;14.62;51.23;100083.84;10331991;28;20093;-61
2024/02/29 12:03:10;;;;;;;38.65;16.83;;;;;;;16.37;47.50;100072.91;10328122;28;20050;-62
2024/02/29 12:08:11;;;;;;;31.05;16.58;;;;;;;20.11;41.21;100042.63;10331267;28;20081;-64
2024/02/29 12:13:13;;;;;;;26.85;14.43;;;;;;;21.50;38.34;100031.81;10330382;28;20522;-63
2024/02/29 12:18:15;;;;;;;26.48;15.25;;;;;;;23.64;35.08;100033.63;10319900;28;20051;-60
2024/02/29 12:23:18;;;;;;;28.48;15.85;;;;;;;23.33;35.15;100030.78;10302225;28;20815;-64
2024/02/29 12:28:20;;;;;;;32.80;15.75;;;;;;;19.74;40.70;100043.84;10300083;28;20058;-64
2024/02/29 12:33:23;;;;;;;25.48;14.27;;;;;;;18.27;42.80;100034.09;10303971;28;20042;-63
2024/02/29 12:38:31;;;;;;;24.85;14.23;;;;;;;16.83;44.57;100028.25;10304420;28;20056;-65
2024/02/29 12:43:33;;;;;;;29.40;13.98;;;;;;;16.64;44.77;100029.25;10268411;28;20079;-63
2024/02/29 12:48:34;;;;;;;25.90;14.30;;;;;;;16.58;44.16;100024.72;10300503;28;20089;-64
2024/02/29 12:53:36;;;;;;;28.15;14.65;;;;;;;18.30;41.48;99992.78;10291886;28;20053;-60
2024/02/29 12:58:39;;;;;;;27.90;14.45;;;;;;;21.80;35.30;99973.84;10298555;28;20447;-62
2024/02/29 13:03:41;;;;;;;25.98;14.85;;;;;;;23.92;32.52;99945.28;10299207;28;20053;-63
2024/02/29 13:08:43;;;;;;;25.77;15.02;;;;;;;26.62;29.40;99943.34;10298048;28;20042;-64
2024/02/29 13:13:45;;;;;;;27.38;14.93;;;;;;;25.52;29.79;99934.63;10299879;28;20137;-63
2024/02/29 13:18:46;;;;;;;23.40;14.25;;;;;;;26.43;28.13;99921.19;10300203;28;20129;-64
2024/02/29 13:23:48;;;;;;;26.75;13.82;;;;;;;28.60;25.76;99906.63;10295826;28;20043;-64
2024/02/29 13:28:50;;;;;;;23.48;13.23;;;;;;;29.41;25.30;99905.19;10297020;28;20047;-64
2024/02/29 13:33:51;;;;;;;20.42;12.68;;;;;;;28.59;25.40;99899.44;10324880;28;20046;-62
2024/02/29 13:38:53;;;;;;;21.90;13.60;;;;;;;28.99;25.11;99883.13;10330594;28;20077;-62
2024/02/29 13:43:54;;;;;;;20.17;12.18;;;;;;;29.13;25.00;99869.28;10330507;28;20065;-61
2024/02/29 13:48:55;;;;;;;22.02;12.98;;;;;;;29.81;23.72;99845.19;10326846;28;20053;-61
2024/02/29 13:54:17;;;;;;;22.73;12.93;;;;;;;29.81;23.79;99824.97;10331960;28;20039;-63
2024/02/29 13:59:20;;;;;;;22.73;13.38;;;;;;;30.22;22.90;99824.66;10334087;28;20050;-63
2024/02/29 14:04:21;;;;;;;18.60;12.18;;;;;;;29.81;23.57;99816.66;10329459;28;20074;-64
2024/02/29 14:09:23;;;;;;;18.65;10.85;;;;;;;30.06;22.66;99812.38;10327928;28;20065;-63
2024/02/29 14:14:25;;;;;;;19.25;12.35;;;;;;;29.87;23.13;99804.31;10324551;28;20405;-64
2024/02/29 14:19:26;;;;;;;19.73;12.15;;;;;;;28.21;23.64;99802.03;10327605;28;20443;-61
2024/02/29 14:24:28;;;;;;;20.10;11.90;;;;;;;27.04;25.25;99787.22;10305889;28;20098;-61
2024/02/29 14:29:29;;;;;;;21.60;12.13;;;;;;;26.58;24.97;99774.09;10298901;28;20046;-63
2024/02/29 14:34:32;;;;;;;21.33;12.68;;;;;;;25.87;25.46;99765.56;10329599;28;20062;-64
2024/02/29 14:39:33;;;;;;;19.75;11.43;;;;;;;25.82;25.62;99745.50;10329849;28;20070;-66
2024/02/29 14:44:35;;;;;;;17.52;10.93;;;;;;;25.47;25.22;99739.25;10305368;28;20137;-68
2024/02/29 14:49:37;;;;;;;18.42;11.07;;;;;;;25.27;25.51;99727.31;10304834;28;20383;-68
2024/02/29 14:54:41;;;;;;;20.33;12.13;;;;;;;24.29;26.96;99726.31;10287942;28;20113;-68
2024/02/29 14:59:42;;;;;;;20.40;11.65;;;;;;;23.38;28.36;99714.50;10306436;28;20134;-66
2024/02/29 15:04:44;;;;;;;21.73;11.52;;;;;;;23.14;28.53;99710.44;10291150;28;20050;-66
2024/02/29 15:09:46;;;;;;;21.95;11.68;;;;;;;23.15;28.13;99701.09;10301193;28;20054;-68
2024/02/29 15:14:47;;;;;;;19.45;10.15;;;;;;;22.57;28.70;99693.09;10304173;28;20050;-67
2024/02/29 15:19:49;;;;;;;17.70;10.88;;;;;;;21.54;30.03;99685.56;10303745;28;20050;-67
2024/02/29 15:24:54;;;;;;;21.95;11.65;;;;;;;20.98;30.91;99678.63;10303963;28;20050;-68
2024/02/29 15:29:55;;;;;;;20.23;10.60;;;;;;;20.31;31.14;99677.16;10300113;28;20050;-67
2024/02/29 15:34:57;;;;;;;21.35;11.43;;;;;;;20.82;31.12;99670.56;10303332;28;20050;-67
2024/02/29 15:39:59;;;;;;;22.92;12.32;;;;;;;20.37;32.12;99662.47;10302630;28;20046;-67
2024/02/29 15:45:01;;;;;;;21.33;11.52;;;;;;;19.80;33.08;99662.94;10302899;28;20650;-66
2024/02/29 15:50:03;;;;;;;24.58;12.77;;;;;;;18.62;34.62;99659.25;10307090;28;20048;-64
2024/02/29 15:55:05;;;;;;;21.73;11.88;;;;;;;17.88;35.74;99653.78;10340083;28;20065;-65
2024/02/29 16:00:08;;;;;;;23.38;12.20;;;;;;;17.19;36.76;99648.19;10337190;28;20059;-61
2024/02/29 16:05:11;;;;;;;21.95;12.07;;;;;;;16.38;37.80;99656.78;10338534;28;20062;-63
2024/02/29 16:10:12;;;;;;;27.25;12.65;;;;;;;15.50;39.60;99644.56;10336721;28;20256;-63
2024/02/29 16:15:15;;;;;;;24.45;12.35;;;;;;;15.09;40.63;99651.44;10342969;28;20046;-65
2024/02/29 16:20:16;;;;;;;25.92;13.00;;;;;;;14.92;40.98;99643.06;10342583;28;20070;-65
2024/02/29 16:25:19;;;;;;;21.85;12.45;;;;;;;14.72;41.40;99643.22;10341534;28;20073;-62
2024/02/29 16:30:20;;;;;;;28.58;13.27;;;;;;;14.31;42.25;99631.00;10340536;28;20054;-63
2024/02/29 16:35:22;;;;;;;26.90;13.57;;;;;;;14.17;42.64;99627.56;10334428;28;20049;-65
2024/02/29 16:40:24;;;;;;;28.45;13.68;;;;;;;13.89;43.20;99617.94;10337394;28;20050;-63
2024/02/29 16:45:25;;;;;;;27.30;13.30;;;;;;;13.65;43.85;99622.22;10342363;28;20085;-65
2024/02/29 16:50:27;;;;;;;26.48;13.18;;;;;;;13.37;44.38;99621.69;10339724;28;20054;-61
2024/02/29 16:55:28;;;;;;;28.75;13.18;;;;;;;13.20;44.78;99614.03;10338695;28;20057;-61
2024/02/29 17:00:30;;;;;;;29.95;14.25;;;;;;;13.12;44.94;99602.66;10331581;28;20046;-66
2024/02/29 17:05:31;;;;;;;28.35;12.63;;;;;;;12.98;45.12;99605.38;10303698;28;20562;-65
2024/02/29 17:10:33;;;;;;;23.45;12.27;;;;;;;12.73;45.57;99605.16;10307855;28;20602;-66
2024/02/29 17:15:35;;;;;;;26.25;13.07;;;;;;;12.44;46.43;99603.72;10303621;28;20063;-66
2024/02/29 17:20:38;;;;;;;26.42;13.18;;;;;;;12.10;47.20;99614.47;10303963;28;20046;-64
2024/02/29 17:25:40;;;;;;;27.15;13.77;;;;;;;11.86;48.02;99601.53;10302118;28;20058;-64
2024/02/29 17:30:42;;;;;;;26.83;13.07;;;;;;;11.78;48.50;99612.47;10285446;28;20069;-66
2024/02/29 17:35:44;;;;;;;24.00;12.68;;;;;;;11.68;48.15;99611.00;10299203;28;20038;-60
2024/02/29 17:40:45;;;;;;;33.40;13.95;;;;;;;11.49;49.25;99607.22;10297472;28;20050;-62
2024/02/29 17:45:47;;;;;;;31.70;13.75;;;;;;;11.30;50.00;99608.75;10301234;28;20724;-60
2024/02/29 17:50:48;;;;;;;27.92;15.00;;;;;;;11.11;50.52;99606.78;10302459;28;20070;-60
2024/02/29 17:55:50;;;;;;;30.90;14.15;;;;;;;10.89;50.82;99592.59;10298616;28;20057;-61
2024/02/29 18:00:52;;;;;;;32.17;15.50;;;;;;;10.64;51.28;99597.56;10285662;28;20054;-62
2024/02/29 18:05:53;;;;;;;35.08;15.77;;;;;;;10.42;51.81;99600.28;10297989;28;20069;-61
2024/02/29 18:10:55;;;;;;;34.10;15.90;;;;;;;10.25;52.33;99596.19;10304108;28;20052;-59
2024/02/29 18:15:56;;;;;;;39.88;16.27;;;;;;;10.02;52.84;99585.63;10336548;28;20145;-59
2024/02/29 18:20:58;;;;;;;30.65;15.07;;;;;;;9.83;53.10;99589.78;10335496;28;20138;-59
2024/02/29 18:25:59;;;;;;;32.28;14.27;;;;;;;9.65;53.54;99593.69;10338552;28;20497;-59
2024/02/29 18:31:02;;;;;;;30.35;14.38;;;;;;;9.49;53.56;99585.88;10336017;28;20054;-59
2024/02/29 18:36:05;;;;;;;32.15;15.32;;;;;;;9.35;54.34;99592.94;10342202;28;20046;-59
2024/02/29 18:41:06;;;;;;;36.95;16.55;;;;;;;9.16;54.73;99591.63;10338132;28;20503;-58
2024/02/29 18:46:07;;;;;;;34.58;16.02;;;;;;;8.97;55.24;99585.00;10318661;28;20394;-58
2024/02/29 18:51:09;;;;;;;31.75;14.07;;;;;;;8.84;55.82;99574.91;10333229;28;20056;-58
2024/02/29 18:56:10;;;;;;;40.13;17.17;;;;;;;8.67;56.13;99566.22;10339678;28;20042;-59
2024/02/29 19:01:12;;;;;;;32.90;14.95;;;;;;;8.39;57.09;99573.16;10341416;28;20049;-58
2024/02/29 19:06:14;;;;;;;32.90;14.48;;;;;;;8.30;57.18;99567.88;10338001;28;20140;-59
2024/02/29 19:11:16;;;;;;;33.08;14.80;;;;;;;8.28;56.97;99559.19;10322282;28;20178;-58
2024/02/29 19:16:17;;;;;;;34.00;15.10;;;;;;;8.18;57.44;99563.13;10277804;28;20497;-58
2024/02/29 19:21:19;;;;;;;32.50;14.18;;;;;;;8.11;57.63;99544.25;10293612;28;20051;-61
2024/02/29 19:26:22;;;;;;;37.15;13.57;;;;;;;7.90;58.42;99547.63;10296691;28;20046;-61
2024/02/29 19:31:24;;;;;;;33.25;16.05;;;;;;;7.82;57.88;99537.81;10297291;28;20078;-61
2024/02/29 19:36:26;;;;;;;66.47;25.35;;;;;;;7.78;58.55;99535.66;10283478;28;20053;-61
2024/02/29 19:41:28;;;;;;;66.90;26.48;;;;;;;7.65;58.98;99538.94;10303862;28;20058;-63
2024/02/29 19:46:30;;;;;;;47.38;21.25;;;;;;;7.53;58.66;99533.16;10303173;28;20053;-61
2024/02/29 19:51:38;;;;;;;40.70;18.02;;;;;;;7.45;59.19;99523.34;10298285;28;20085;-61
2024/02/29 19:56:39;;;;;;;37.90;14.93;;;;;;;7.36;58.75;99513.69;10300671;28;20049;-60
2024/02/29 20:01:41;;;;;;;38.65;15.57;;;;;;;7.22;59.24;99509.09;10301104;28;20133;-60
2024/02/29 20:06:43;;;;;;;32.83;15.60;;;;;;;7.15;59.88;99504.44;10305541;28;20057;-59
2024/02/29 20:11:44;;;;;;;33.72;14.40;;;;;;;7.10;60.18;99503.31;10299554;28;20121;-62
2024/02/29 20:16:45;;;;;;;31.13;14.73;;;;;;;6.99;59.91;99503.69;10300505;28;20055;-61
2024/02/29 20:21:47;;;;;;;34.33;16.67;;;;;;;6.90;60.34;99503.72;10285940;28;20077;-62
2024/02/29 20:26:48;;;;;;;38.25;15.80;;;;;;;6.87;60.81;99501.41;10301134;28;20046;-62
2024/02/29 20:31:52;;;;;;;36.03;16.73;;;;;;;6.71;60.90;99502.31;10304440;28;20061;-60
2024/02/29 20:36:53;;;;;;;38.00;15.57;;;;;;;6.76;61.52;99499.09;10302699;28;20057;-59
2024/02/29 20:41:55;;;;;;;28.52;13.23;;;;;;;6.74;61.45;99496.59;10301212;28;20054;-59
2024/02/29 20:46:57;;;;;;;28.02;12.25;;;;;;;6.61;61.52;99496.31;10297933;28;20050;-59
2024/02/29 20:51:58;;;;;;;28.55;13.45;;;;;;;6.62;61.85;99495.31;10297798;28;20933;-60
2024/02/29 20:57:00;;;;;;;36.15;14.52;;;;;;;6.53;61.52;99486.47;10300784;28;20134;-59
2024/02/29 21:02:02;;;;;;;33.58;13.60;;;;;;;6.49;61.09;99487.81;10297101;28;20119;-59
2024/02/29 21:07:04;;;;;;;33.90;13.50;;;;;;;6.37;61.81;99475.84;10297533;28;20109;-58
2024/02/29 21:12:06;;;;;;;32.17;13.45;;;;;;;6.40;61.55;99467.50;10297121;28;20069;-59
2024/02/29 21:17:07;;;;;;;33.45;13.25;;;;;;;6.37;62.46;99467.84;10293704;28;20062;-59
2024/02/29 21:22:09;;;;;;;30.73;13.18;;;;;;;6.23;61.82;99474.72;10296479;28;20059;-59
2024/02/29 21:27:10;;;;;;;28.00;12.40;;;;;;;6.21;62.18;99471.38;10303005;28;20070;-59
2024/02/29 21:32:12;;;;;;;30.17;13.40;;;;;;;6.10;62.68;99477.91;10296108;28;20414;-59
2024/02/29 21:37:14;;;;;;;34.63;12.70;;;;;;;6.03;62.83;99471.56;10293737;28;20054;-59
2024/02/29 21:42:15;;;;;;;32.88;14.48;;;;;;;5.99;63.15;99464.91;10299537;28;20053;-60
2024/02/29 21:47:17;;;;;;;37.40;15.95;;;;;;;5.99;63.45;99464.91;10295815;28;20050;-60
2024/02/29 21:52:18;;;;;;;35.42;14.05;;;;;;;5.92;63.18;99461.22;10282146;28;20042;-60
2024/02/29 21:57:19;;;;;;;31.00;13.90;;;;;;;5.81;63.08;99461.56;10296883;28;20054;-61
2024/02/29 22:02:21;;;;;;;35.22;15.43;;;;;;;5.79;63.24;99459.06;10296935;28;20047;-60
2024/02/29 22:07:22;;;;;;;33.28;12.63;;;;;;;5.72;63.25;99458.06;10299706;28;20485;-60
2024/02/29 22:12:24;;;;;;;30.90;13.93;;;;;;;5.69;64.38;99453.06;10293378;28;20142;-59
2024/02/29 22:17:25;;;;;;;39.58;15.88;;;;;;;5.69;63.58;99450.41;10299020;28;20466;-60
2024/02/29 22:22:26;;;;;;;31.73;13.38;;;;;;;5.73;63.58;99449.91;10297062;28;20458;-60
2024/02/29 22:27:28;;;;;;;28.48;13.25;;;;;;;5.67;63.42;99442.56;10291451;28;20062;-60
2024/02/29 22:32:30;;;;;;;34.28;14.20;;;;;;;5.59;64.30;99442.56;10297439;28;20057;-61
2024/02/29 22:37:33;;;;;;;33.47;13.40;;;;;;;5.59;64.42;99439.06;10296359;28;20054;-61
2024/02/29 22:42:35;;;;;;;35.03;14.15;;;;;;;5.52;64.32;99441.56;10296166;28;20707;-61
2024/02/29 22:47:36;;;;;;;31.13;13.50;;;;;;;5.46;64.15;99443.06;10295461;28;20051;-61
2024/02/29 22:52:38;;;;;;;37.53;15.15;;;;;;;5.45;65.04;99440.53;10296870;28;20129;-59
2024/02/29 22:57:39;;;;;;;37.55;13.70;;;;;;;5.40;65.11;99437.56;10294266;28;20070;-59